createdAt,value
2023-02-02T00:01:58.182Z,2.35
2023-02-02T00:04:29.642Z,2.20
2023-02-02T00:06:58.136Z,2.63
2023-02-02T00:09:29.796Z,1.98
2023-02-02T00:14:26.748Z,2.65
2023-02-02T00:16:56.493Z,2.50
2023-02-02T00:19:30.402Z,2.20
2023-02-02T00:21:58.642Z,2.63
2023-02-02T00:24:26.790Z,2.47
2023-02-02T00:26:59.745Z,2.60
2023-02-02T00:29:30.668Z,2.50
2023-02-02T00:31:58.462Z,2.05
2023-02-02T00:34:26.478Z,2.40
2023-02-02T00:36:54.295Z,2.33
2023-02-02T00:39:26.274Z,2.15
2023-02-02T00:41:54.447Z,2.80
2023-02-02T00:44:40.817Z,2.47
2023-02-02T00:47:08.615Z,2.50
2023-02-02T00:49:39.608Z,2.42
2023-02-02T00:52:07.546Z,2.70
2023-02-02T00:54:35.362Z,2.53
2023-02-02T00:57:03.775Z,2.47
2023-02-02T00:59:32.357Z,2.13
2023-02-02T01:02:01.994Z,2.17
2023-02-02T01:04:29.775Z,2.22
2023-02-02T01:06:58.295Z,2.45
2023-02-02T01:09:26.031Z,2.28
2023-02-02T01:11:54.689Z,2.55
2023-02-02T01:14:22.739Z,2.80
2023-02-02T01:16:50.585Z,2.70
2023-02-02T01:19:18.404Z,2.20
2023-02-02T01:21:46.273Z,2.35
2023-02-02T01:24:14.855Z,2.50
2023-02-02T01:26:42.842Z,2.38
2023-02-02T01:29:10.986Z,2.60
2023-02-02T01:31:38.771Z,2.63
2023-02-02T01:34:06.877Z,2.28
2023-02-02T01:36:35.031Z,2.47
2023-02-02T01:39:03.404Z,2.65
2023-02-02T01:41:31.126Z,2.83
2023-02-02T01:44:03.635Z,2.53
2023-02-02T01:46:37.052Z,2.50
2023-02-02T01:49:09.751Z,2.30
2023-02-02T01:51:50.049Z,2.25
2023-02-02T01:54:36.295Z,2.00
2023-02-02T01:57:16.376Z,2.40
2023-02-02T01:59:47.541Z,2.40
2023-02-02T02:02:15.997Z,2.17
2023-02-02T02:04:43.989Z,2.15
2023-02-02T02:07:13.276Z,2.30
2023-02-02T02:09:41.225Z,2.78
2023-02-02T02:12:15.479Z,2.50
2023-02-02T02:15:08.796Z,2.20
2023-02-02T02:18:07.003Z,2.90
2023-02-02T02:21:37.709Z,2.67
2023-02-02T02:24:53.571Z,2.22
2023-02-02T02:28:21.326Z,2.30
2023-02-02T02:30:58.857Z,2.08
2023-02-02T02:34:00.915Z,2.30
2023-02-02T02:36:51.973Z,2.65
2023-02-02T02:40:02.439Z,2.20
2023-02-02T02:42:36.739Z,2.30
2023-02-02T02:45:07.956Z,2.50
2023-02-02T02:47:37.293Z,2.10
2023-02-02T02:50:25.015Z,2.33
2023-02-02T02:53:06.043Z,2.42
2023-02-02T02:56:09.189Z,2.50
2023-02-02T02:58:58.865Z,2.75
2023-02-02T03:02:06.376Z,2.33
2023-02-02T03:04:47.144Z,2.45
2023-02-02T03:07:38.287Z,2.65
2023-02-02T03:10:07.924Z,2.67
2023-02-02T03:12:47.656Z,2.22
2023-02-02T03:15:17.173Z,2.30
2023-02-02T03:17:47.739Z,2.40
2023-02-02T03:20:16.625Z,1.63
2023-02-02T03:22:44.436Z,2.60
2023-02-02T03:25:13.008Z,2.70
2023-02-02T03:27:41.171Z,2.50
2023-02-02T03:30:13.028Z,2.30
2023-02-02T03:32:41.464Z,2.45
2023-02-02T03:35:10.168Z,2.38
2023-02-02T03:37:38.172Z,2.25
2023-02-02T03:40:07.330Z,2.40
2023-02-02T03:42:35.421Z,2.30
2023-02-02T03:45:03.540Z,2.40
2023-02-02T03:47:31.739Z,2.17
2023-02-02T03:49:59.558Z,2.60
2023-02-02T03:52:27.375Z,2.50
2023-02-02T03:54:55.254Z,2.67
2023-02-02T03:57:23.192Z,2.13
2023-02-02T03:59:51.008Z,2.28
2023-02-02T04:02:19.017Z,2.40
2023-02-02T04:04:46.747Z,2.30
2023-02-02T04:07:15.008Z,2.20
2023-02-02T04:09:42.743Z,2.22
2023-02-02T04:12:10.462Z,2.13
2023-02-02T04:14:38.269Z,2.53
2023-02-02T04:17:06.047Z,2.22
2023-02-02T04:19:33.941Z,2.63
2023-02-02T04:22:01.851Z,2.70
2023-02-02T04:24:29.728Z,2.22
2023-02-02T04:26:57.643Z,2.38
2023-02-02T04:29:26.300Z,2.50
2023-02-02T04:31:54.717Z,2.38
2023-02-02T04:34:22.984Z,2.70
2023-02-02T04:36:50.943Z,2.72
2023-02-02T04:39:18.591Z,2.40
2023-02-02T04:41:46.321Z,2.30
2023-02-02T04:44:16.095Z,2.63
2023-02-02T04:46:44.632Z,2.25
2023-02-02T04:49:13.038Z,2.60
2023-02-02T04:51:41.585Z,2.40
2023-02-02T04:54:09.443Z,2.63
2023-02-02T04:56:37.228Z,2.42
2023-02-02T04:59:05.159Z,2.40
2023-02-02T05:01:32.999Z,2.22
2023-02-02T05:04:00.786Z,2.78
2023-02-02T05:06:28.527Z,2.33
2023-02-02T05:08:56.186Z,2.47
2023-02-02T05:11:24.539Z,2.72
2023-02-02T05:13:55.190Z,2.50
2023-02-02T05:16:24.308Z,2.47
2023-02-02T05:18:54.944Z,2.30
2023-02-02T05:21:23.136Z,2.77
2023-02-02T05:23:51.339Z,2.17
2023-02-02T05:26:26.754Z,2.40
2023-02-02T05:28:54.860Z,2.30
2023-02-02T05:31:22.851Z,2.80
2023-02-02T05:33:50.579Z,2.47
2023-02-02T05:36:18.582Z,2.63
2023-02-02T05:38:46.321Z,2.80
2023-02-02T05:41:14.430Z,2.30
2023-02-02T05:43:42.403Z,2.70
2023-02-02T05:46:10.554Z,2.75
2023-02-02T05:48:38.385Z,2.75
2023-02-02T05:51:15.297Z,2.53
2023-02-02T05:53:45.043Z,2.42
2023-02-02T05:56:15.652Z,2.55
2023-02-02T05:58:44.467Z,2.75
2023-02-02T06:01:12.168Z,2.75
2023-02-02T06:03:40.172Z,2.45
2023-02-02T06:06:08.414Z,2.70
2023-02-02T06:08:36.669Z,2.50
2023-02-02T06:11:17.258Z,2.10
2023-02-02T06:13:46.122Z,2.75
2023-02-02T06:16:14.193Z,2.40
2023-02-02T06:18:42.160Z,2.65
2023-02-02T06:21:11.123Z,2.47
2023-02-02T06:23:39.045Z,3.30
2023-02-02T06:26:08.223Z,3.15
2023-02-02T06:28:35.977Z,2.88
2023-02-02T06:31:09.056Z,2.58
2023-02-02T06:33:37.414Z,2.67
2023-02-02T06:36:07.224Z,3.08
2023-02-02T06:38:35.057Z,2.88
2023-02-02T06:41:03.670Z,3.15
2023-02-02T06:43:31.661Z,2.90
2023-02-02T06:46:00.196Z,2.58
2023-02-02T06:48:27.880Z,2.60
2023-02-02T06:50:59.535Z,2.90
2023-02-02T06:53:27.956Z,2.65
2023-02-02T06:56:08.891Z,2.45
2023-02-02T06:58:36.631Z,2.53
2023-02-02T07:01:13.005Z,2.60
2023-02-02T07:03:40.914Z,2.95
2023-02-02T07:06:29.197Z,3.00
2023-02-02T07:09:00.924Z,2.67
2023-02-02T07:11:38.850Z,2.65
2023-02-02T07:14:13.490Z,2.45
2023-02-02T07:16:41.246Z,2.72
2023-02-02T07:19:09.304Z,2.55
2023-02-02T07:21:37.292Z,2.47
2023-02-02T07:24:06.401Z,2.50
2023-02-02T07:26:36.408Z,2.65
2023-02-02T07:29:05.076Z,3.00
2023-02-02T07:31:35.850Z,3.00
2023-02-02T07:34:04.389Z,3.33
2023-02-02T07:36:33.036Z,2.53
2023-02-02T07:39:03.917Z,2.75
2023-02-02T07:41:35.095Z,2.35
2023-02-02T07:44:04.918Z,2.53
2023-02-02T07:46:34.494Z,2.42
2023-02-02T07:49:03.587Z,2.95
2023-02-02T07:51:31.377Z,2.92
2023-02-02T07:53:59.466Z,3.70
2023-02-02T07:56:28.512Z,2.88
2023-02-02T07:58:57.449Z,2.60
2023-02-02T08:01:27.588Z,3.05
2023-02-02T08:04:00.253Z,3.63
2023-02-02T08:06:34.255Z,2.83
2023-02-02T08:09:06.516Z,3.28
2023-02-02T08:11:35.740Z,3.30
2023-02-02T08:14:05.696Z,3.58
2023-02-02T08:16:36.169Z,3.22
2023-02-02T08:19:03.953Z,2.97
2023-02-02T08:21:35.789Z,3.00
2023-02-02T08:24:05.157Z,3.05
2023-02-02T08:26:33.057Z,2.67
2023-02-02T08:29:07.821Z,3.00
2023-02-02T08:31:41.687Z,2.92
2023-02-02T08:34:14.000Z,3.28
2023-02-02T08:36:42.114Z,2.97
2023-02-02T08:39:13.062Z,3.10
2023-02-02T08:41:40.888Z,2.53
2023-02-02T08:44:11.774Z,2.50
2023-02-02T08:46:41.626Z,3.00
2023-02-02T08:49:29.304Z,2.78
2023-02-02T08:51:57.310Z,2.70
2023-02-02T08:54:25.246Z,3.08
2023-02-02T08:56:52.955Z,2.72
2023-02-02T08:59:20.883Z,2.92
2023-02-02T09:01:48.856Z,2.50
2023-02-02T09:04:17.018Z,2.55
2023-02-02T09:06:45.390Z,2.65
2023-02-02T09:09:16.281Z,2.83
2023-02-02T09:11:44.440Z,3.40
2023-02-02T09:14:14.109Z,2.83
2023-02-02T09:16:42.218Z,2.65
2023-02-02T09:19:11.563Z,3.00
2023-02-02T09:21:40.486Z,3.10
2023-02-02T09:24:11.729Z,3.20
2023-02-02T09:26:40.568Z,2.92
2023-02-02T09:29:12.423Z,2.95
2023-02-02T09:31:40.864Z,2.83
2023-02-02T09:34:12.361Z,2.38
2023-02-02T09:39:10.523Z,2.78
2023-02-02T09:41:38.797Z,3.10
2023-02-02T09:44:32.896Z,2.63
2023-02-02T09:47:14.553Z,2.90
2023-02-02T09:53:23.105Z,2.92
2023-02-02T09:55:56.135Z,2.85
2023-02-02T09:58:53.456Z,2.90
2023-02-02T10:01:31.716Z,3.33
2023-02-02T10:04:27.155Z,2.92
2023-02-02T10:07:00.402Z,2.80
2023-02-02T10:09:36.874Z,2.95
2023-02-02T10:12:35.862Z,3.33
2023-02-02T10:15:35.098Z,2.95
2023-02-02T10:18:29.079Z,3.42
2023-02-02T10:21:02.510Z,4.20
2023-02-02T10:23:44.305Z,3.50
2023-02-02T10:29:23.848Z,2.80
2023-02-02T10:32:14.667Z,3.38
2023-02-02T10:35:06.979Z,3.17
2023-02-02T10:38:17.013Z,3.13
2023-02-02T10:41:22.343Z,3.17
2023-02-02T10:44:01.673Z,3.10
2023-02-02T10:46:39.668Z,3.00
2023-02-02T10:49:14.657Z,2.60
2023-02-02T10:51:55.674Z,3.58
2023-02-02T10:55:05.789Z,3.50
2023-02-02T10:58:01.365Z,2.88
2023-02-02T11:00:54.695Z,2.45
2023-02-02T11:03:27.406Z,2.30
2023-02-02T11:06:17.297Z,2.40
2023-02-02T11:08:52.690Z,2.38
2023-02-02T11:11:28.239Z,3.13
2023-02-02T11:14:07.753Z,2.30
2023-02-02T11:16:43.653Z,2.00
2023-02-02T11:19:27.897Z,2.00
2023-02-02T11:22:02.983Z,1.90
2023-02-02T11:24:36.754Z,2.15
2023-02-02T11:27:15.120Z,2.35
2023-02-02T11:29:48.968Z,2.00
2023-02-02T11:32:27.454Z,2.70
2023-02-02T11:35:04.100Z,2.33
2023-02-02T11:37:35.242Z,1.90
2023-02-02T11:40:56.806Z,2.80
2023-02-02T11:43:36.191Z,2.22
2023-02-02T11:46:08.144Z,2.20
2023-02-02T11:48:39.460Z,1.92
2023-02-02T11:51:19.067Z,1.92
2023-02-02T11:53:49.149Z,1.50
2023-02-02T11:56:29.513Z,1.70
2023-02-02T11:58:59.170Z,1.80
2023-02-02T12:01:34.622Z,1.98
2023-02-02T12:04:23.225Z,1.70
2023-02-02T12:06:51.030Z,1.52
2023-02-02T12:09:26.119Z,2.10
2023-02-02T12:12:20.140Z,1.80
2023-02-02T12:15:08.171Z,1.77
2023-02-02T12:17:48.471Z,1.88
2023-02-02T12:20:26.591Z,1.50
2023-02-02T12:23:13.642Z,2.00
2023-02-02T12:26:21.790Z,1.25
2023-02-02T12:29:39.309Z,1.50
2023-02-02T12:32:43.067Z,1.80
2023-02-02T12:35:40.374Z,1.50
2023-02-02T12:38:36.114Z,1.75
2023-02-02T12:41:29.548Z,1.30
2023-02-02T12:44:13.674Z,1.70
2023-02-02T12:47:16.247Z,1.50
2023-02-02T12:50:11.584Z,1.40
2023-02-02T12:53:19.299Z,1.92
2023-02-02T12:57:03.484Z,1.40
2023-02-02T13:00:01.702Z,1.42
2023-02-02T13:03:05.069Z,1.67
2023-02-02T13:05:58.532Z,1.50
2023-02-02T13:11:30.031Z,1.42
2023-02-02T13:14:16.372Z,1.50
2023-02-02T13:16:50.265Z,1.58
2023-02-02T13:19:32.041Z,1.65
2023-02-02T13:22:06.754Z,1.70
2023-02-02T13:24:40.393Z,1.30
2023-02-02T13:27:14.624Z,1.52
2023-02-02T13:29:54.752Z,1.80
2023-02-02T13:32:36.163Z,1.90
2023-02-02T13:35:55.728Z,1.70
2023-02-02T13:38:27.017Z,1.58
2023-02-02T13:40:59.184Z,1.58
2023-02-02T13:43:45.999Z,1.73
2023-02-02T13:46:34.158Z,1.80
2023-02-02T13:49:31.155Z,2.03
2023-02-02T13:52:23.806Z,1.85
2023-02-02T13:55:13.124Z,1.95
2023-02-02T13:57:56.934Z,1.58
2023-02-02T14:00:34.807Z,1.75
2023-02-02T14:03:38.610Z,1.77
2023-02-02T14:06:22.356Z,2.17
2023-02-02T14:09:00.267Z,1.80
2023-02-02T14:11:51.923Z,2.10
2023-02-02T14:14:32.991Z,2.38
2023-02-02T14:17:03.111Z,1.80
2023-02-02T14:19:31.064Z,2.38
2023-02-02T14:22:09.243Z,2.03
2023-02-02T14:24:36.903Z,2.55
2023-02-02T14:27:30.483Z,2.22
2023-02-02T14:30:14.784Z,1.88
2023-02-02T14:32:43.367Z,2.17
2023-02-02T14:35:14.427Z,2.20
2023-02-02T14:37:48.036Z,2.03
2023-02-02T14:40:34.578Z,2.40
2023-02-02T14:43:50.925Z,2.13
2023-02-02T14:46:36.324Z,2.00
2023-02-02T14:49:04.156Z,2.60
2023-02-02T14:51:35.132Z,2.65
2023-02-02T14:54:39.837Z,2.63
2023-02-02T14:57:28.671Z,2.80
2023-02-02T15:00:00.835Z,2.60
2023-02-02T15:02:37.779Z,2.17
2023-02-02T15:05:39.047Z,2.20
2023-02-02T15:08:26.870Z,2.28
2023-02-02T15:11:24.750Z,2.22
2023-02-02T15:14:07.085Z,2.17
2023-02-02T15:16:39.287Z,2.15
2023-02-02T15:19:33.122Z,2.78
2023-02-02T15:22:42.773Z,2.05
2023-02-02T15:25:50.254Z,2.00
2023-02-02T15:28:52.018Z,2.08
2023-02-02T15:31:46.757Z,1.85
2023-02-02T15:34:46.213Z,1.98
2023-02-02T15:37:21.617Z,1.70
2023-02-02T15:39:58.282Z,2.10
2023-02-02T15:42:52.862Z,1.90
2023-02-02T15:45:54.829Z,1.60
2023-02-02T15:50:57.473Z,2.00
2023-02-02T15:53:44.678Z,1.80
2023-02-02T15:56:24.562Z,1.88
2023-02-02T15:58:56.032Z,1.73
2023-02-02T16:04:22.420Z,1.85
2023-02-02T16:06:50.715Z,1.73
2023-02-02T16:09:26.909Z,1.48
2023-02-02T16:11:54.925Z,1.95
2023-02-02T16:14:23.804Z,1.27
2023-02-02T16:16:51.659Z,1.77
2023-02-02T16:19:26.216Z,2.53
2023-02-02T16:22:01.899Z,1.80
2023-02-02T16:24:36.157Z,1.60
2023-02-02T16:27:08.392Z,1.40
2023-02-02T16:29:36.767Z,1.27
2023-02-02T16:32:05.174Z,2.08
2023-02-02T16:34:46.812Z,1.42
2023-02-02T16:37:32.078Z,1.67
2023-02-02T16:40:28.649Z,1.77
2023-02-02T16:43:19.916Z,1.58
2023-02-02T16:45:57.496Z,1.70
2023-02-02T16:48:44.880Z,1.80
2023-02-02T16:51:18.872Z,1.73
2023-02-02T16:54:07.809Z,2.15
2023-02-02T16:56:39.921Z,1.58
2023-02-02T16:59:28.493Z,1.70
2023-02-02T17:02:21.299Z,2.65
2023-02-02T17:04:56.249Z,3.13
2023-02-02T17:07:24.897Z,2.50
2023-02-02T17:10:31.254Z,2.00
2023-02-02T17:13:00.624Z,2.25
2023-02-02T17:15:36.116Z,2.70
2023-02-02T17:18:05.286Z,2.72
2023-02-02T17:20:34.497Z,2.20
2023-02-02T17:23:09.744Z,1.80
2023-02-02T17:25:42.888Z,1.90
2023-02-02T17:28:15.751Z,2.92
2023-02-02T17:30:47.029Z,4.40
2023-02-02T17:33:18.469Z,4.45
2023-02-02T17:38:24.844Z,3.83
2023-02-02T17:40:54.136Z,3.22
2023-02-02T17:43:22.228Z,3.15
2023-02-02T17:45:50.662Z,3.53
2023-02-02T17:48:18.647Z,3.28
2023-02-02T17:50:47.024Z,2.40
2023-02-02T17:53:20.289Z,2.25
2023-02-02T17:55:52.401Z,2.50
2023-02-02T17:58:20.247Z,3.00
2023-02-02T18:00:53.827Z,3.40
2023-02-02T18:03:34.287Z,2.25
2023-02-02T18:06:03.772Z,2.27
2023-02-02T18:08:33.481Z,3.67
2023-02-02T18:11:01.585Z,2.03
2023-02-02T18:13:30.165Z,1.88
2023-02-02T18:15:59.695Z,2.13
2023-02-02T18:18:29.609Z,1.90
2023-02-02T18:20:58.942Z,1.50
2023-02-02T18:23:26.969Z,1.70
2023-02-02T18:25:54.671Z,1.70
2023-02-02T18:28:22.616Z,1.77
2023-02-02T18:30:50.589Z,1.70
2023-02-02T18:33:19.920Z,1.60
2023-02-02T18:35:48.391Z,1.55
2023-02-02T18:38:16.347Z,1.42
2023-02-02T18:40:44.067Z,1.80
2023-02-02T18:43:11.837Z,1.55
2023-02-02T18:45:39.571Z,1.73
2023-02-02T18:48:07.474Z,1.45
2023-02-02T18:50:36.156Z,1.70
2023-02-02T18:53:04.008Z,1.50
2023-02-02T18:55:31.827Z,1.48
2023-02-02T18:57:59.637Z,1.30
2023-02-02T19:00:27.595Z,1.88
2023-02-02T19:02:55.651Z,1.73
2023-02-02T19:05:42.318Z,1.70
2023-02-02T19:08:10.116Z,1.77
2023-02-02T19:10:38.036Z,1.80
2023-02-02T19:13:06.541Z,1.63
2023-02-02T19:15:39.300Z,1.65
2023-02-02T19:18:15.332Z,1.67
2023-02-02T19:20:44.420Z,1.80
2023-02-02T19:23:29.502Z,1.60
2023-02-02T19:25:57.278Z,1.50
2023-02-02T19:28:31.332Z,1.77
2023-02-02T19:31:02.201Z,1.42
2023-02-02T19:33:42.449Z,1.35
2023-02-02T19:36:30.840Z,1.60
2023-02-02T19:39:12.094Z,1.80
2023-02-02T19:41:42.359Z,1.48
2023-02-02T19:44:22.932Z,1.50
2023-02-02T19:46:52.790Z,1.77
2023-02-02T19:49:33.235Z,1.17
2023-02-02T19:52:05.674Z,1.40
2023-02-02T19:54:40.818Z,1.67
2023-02-02T19:57:43.004Z,1.95
2023-02-02T20:00:23.690Z,1.25
2023-02-02T20:03:11.236Z,1.50
2023-02-02T20:05:44.900Z,1.25
2023-02-02T20:08:38.119Z,1.58
2023-02-02T20:11:32.168Z,1.55
2023-02-02T20:14:03.104Z,1.50
2023-02-02T20:16:43.898Z,1.20
2023-02-02T20:19:22.549Z,0.93
2023-02-02T20:21:52.637Z,1.77
2023-02-02T20:24:35.824Z,1.50
2023-02-02T20:27:16.699Z,1.77
2023-02-02T20:29:47.832Z,1.52
2023-02-02T20:32:21.645Z,1.50
2023-02-02T20:34:51.322Z,1.40
2023-02-02T20:37:27.147Z,1.63
2023-02-02T20:39:57.478Z,1.90
2023-02-02T20:42:25.634Z,1.73
2023-02-02T20:44:54.078Z,1.60
2023-02-02T20:47:22.024Z,1.27
2023-02-02T20:49:49.869Z,1.48
2023-02-02T20:52:23.956Z,1.60
2023-02-02T20:54:52.461Z,1.58
2023-02-02T20:57:20.265Z,1.63
2023-02-02T20:59:48.768Z,1.40
2023-02-02T21:02:20.332Z,1.55
2023-02-02T21:04:48.501Z,1.60
2023-02-02T21:07:18.692Z,1.77
2023-02-02T21:09:48.822Z,2.00
2023-02-02T21:12:17.638Z,1.80
2023-02-02T21:14:45.525Z,1.80
2023-02-02T21:17:15.481Z,1.55
2023-02-02T21:19:44.008Z,1.70
2023-02-02T21:22:12.312Z,1.50
2023-02-02T21:24:40.389Z,1.60
2023-02-02T21:27:09.279Z,1.48
2023-02-02T21:29:37.380Z,1.60
2023-02-02T21:32:05.395Z,1.35
2023-02-02T21:34:33.491Z,1.60
2023-02-02T21:37:01.780Z,1.60
2023-02-02T21:39:36.658Z,1.13
2023-02-02T21:42:07.466Z,1.65
2023-02-02T21:44:38.368Z,1.42
2023-02-02T21:47:37.100Z,1.90
2023-02-02T21:50:19.780Z,1.40
2023-02-02T21:52:47.778Z,1.42
2023-02-02T21:55:36.752Z,1.40
2023-02-02T21:58:45.247Z,1.20
2023-02-02T22:01:41.968Z,1.60
2023-02-02T22:04:22.509Z,1.80
2023-02-02T22:07:10.341Z,1.55
2023-02-02T22:09:41.326Z,1.27
2023-02-02T22:12:22.296Z,1.20
2023-02-02T22:15:00.656Z,1.40
2023-02-02T22:17:41.042Z,1.20
2023-02-02T22:20:15.115Z,1.30
2023-02-02T22:22:47.311Z,1.48
2023-02-02T22:25:18.085Z,1.25
2023-02-02T22:27:55.420Z,1.17
2023-02-02T22:30:39.102Z,1.23
2023-02-02T22:33:09.794Z,1.48
2023-02-02T22:35:38.220Z,1.30
2023-02-02T22:38:06.673Z,1.30
2023-02-02T22:40:35.272Z,1.65
2023-02-02T22:43:05.947Z,1.70
2023-02-02T22:45:34.729Z,1.53
2023-02-02T22:48:02.632Z,1.67
2023-02-02T22:50:31.886Z,1.60
2023-02-02T22:52:59.692Z,1.48
2023-02-02T22:55:28.498Z,1.70
2023-02-02T22:57:56.233Z,1.45
2023-02-02T23:00:30.259Z,1.30
2023-02-02T23:02:58.236Z,1.40
2023-02-02T23:05:27.892Z,1.40
2023-02-02T23:07:56.521Z,1.30
2023-02-02T23:10:27.795Z,1.55
2023-02-02T23:12:58.371Z,1.35
2023-02-02T23:15:27.069Z,1.42
2023-02-02T23:17:54.928Z,1.33
2023-02-02T23:20:23.528Z,1.45
2023-02-02T23:22:51.773Z,1.35
2023-02-02T23:25:19.642Z,1.27
2023-02-02T23:27:47.906Z,1.38
2023-02-02T23:30:16.403Z,1.30
2023-02-02T23:32:44.815Z,1.67
2023-02-02T23:35:12.586Z,1.33
2023-02-02T23:37:40.435Z,1.50
2023-02-02T23:40:09.375Z,1.42
2023-02-02T23:42:37.574Z,1.40
2023-02-02T23:45:05.998Z,1.67
2023-02-02T23:47:35.383Z,1.42
2023-02-02T23:50:05.916Z,1.55
2023-02-02T23:52:34.927Z,1.33
2023-02-02T23:55:04.253Z,1.20
2023-02-02T23:57:33.822Z,1.50
